Tiempo atmosférico en la estación meteorológica de Sos del Rey Católico, Zaragoza (630 m.)



Fecha
DESCASC
Temp. máxima en grados centígrados (hora)
DESCASC
Temp. mínima en grados centígrados (hora)
DESCASC
Temp. media en grados centígrados
DESCASC
Racha de viento máxima en m/sg (hora)
DESCASC
Velocidad máxima media en intervalos de 10 minutos(hora)
DESCASC
Precipitaciones diarias en mm
DESCASC
Precipitaciones de 00:00 a 06:00 en mm
DESCASC
Precipitaciones de 06:00 a 12:00 en mm
DESCASC
Precipitaciones de 12:00 a 18:00 en mm
DESCASC
Precipitaciones de 18:00 a 24:00 en mm
DESCASC
13-10-2019 24.3 (15:30) 17.3 (07:00) 20.8 14.72 (23:00) 8.61 (02:20) 0 0 0 0 0
12-10-2019 24.4 (15:00) 18.2 (06:10) 21.3 13.89 (22:00) 8.06 (22:50) 0 0 0 0 0
10-10-2019 21.8 (16:50) 9.6 (00:00) 15.7 7.22 (01:10) 3.61 (00:10) 0 0 0 0 0
09-10-2019 19.1 (14:40) 12.4 (00:00) 15.8 11.94 (16:10) 6.94 (18:10) 0 0 0 0 0
08-10-2019 26.5 (16:30) 10.8 (00:00) 18.7 5.28 (01:00) 2.78 (00:30) 0 0 0 0 0
07-10-2019 21.4 (15:40) 11.2 (00:00) 16.3 12.22 (19:20) 8.06 (19:20) 0 0 0 0 0
06-10-2019 20 (16:10) 11.7 (00:00) 15.8 11.11 (18:00) 6.39 (18:00) 0 0 0 0 0
05-10-2019 23.5 (17:00) 12.5 (08:00) 18 7.22 (00:10) 4.17 (00:10) 0 0 0 0 0
04-10-2019 22.6 (15:00) 11.2 (00:00) 16.9 8.33 (23:59) 5 (18:40) 0 0 0 0 0
03-10-2019 21.9 (16:20) 11 (00:00) 16.4 11.11 (03:40) 6.11 (17:00) 0 0 0 0 0
02-10-2019 17.7 (15:50) 13 (00:00) 15.4 12.78 (15:50) 8.33 (23:50) 0 0 0 0 0
01-10-2019 24.9 (14:40) 12.8 (00:00) 18.8 9.17 (15:40) 5.28 (15:50) 0 0 0 0 0
30-09-2019 27.7 (17:00) 11.5 (00:00) 19.6 5 (17:20) 2.78 (22:00) 0 0 0 0 0
29-09-2019 27.6 (17:10) 12.4 (00:00) 20 6.67 (16:10) 3.61 (16:10) 0 0 0 0 0
28-09-2019 25.8 (16:50) 10.9 (00:00) 18.3 6.11 (16:20) 3.06 (16:20) 0 0 0 0 0
27-09-2019 25.4 (16:40) 11.4 (00:00) 18.4 6.94 (20:20) 3.89 (20:20) 0 0 0 0 0
26-09-2019 26 (17:00) 11.2 (00:00) 18.6 5.28 (16:40) 2.78 (21:20) 0 0 0 0 0
25-09-2019 20.2 (16:10) 13.3 (00:00) 16.8 7.78 (03:30) 4.17 (03:50) 0 0 0 0 0
24-09-2019 25.5 (15:50) 12.4 (00:00) 18.9 8.33 (17:10) 3.89 (18:30) 0 0 0 0 0
23-09-2019 22.2 (17:40) 9.4 (00:00) 15.8 4.17 (12:40) 2.5 (21:30) 0 0 0 0 0
22-09-2019 20.8 (16:20) 13.8 (00:00) 17.3 8.89 (02:50) 4.44 (02:40) 5.3 0 5.3 0 0
21-09-2019 23.6 (17:50) 16.6 (00:00) 20.1 14.17 (05:00) 6.67 (04:20) 5.8 4 0 0 1.8
20-09-2019 25.8 (16:30) 15.7 (00:00) 20.7 15.56 (21:30) 8.61 (21:30) 6.2 0 0 0 6.2
19-09-2019 26.6 (17:30) 14.6 (00:00) 20.6 5.56 (16:10) 2.78 (15:20) 0 0 0 0 0
18-09-2019 26.4 (17:00) 16.1 (00:00) 21.3 10.28 (06:50) 6.39 (06:50) 24.4 0 24.3 0 0.1
17-09-2019 28.6 (18:00) 15.2 (00:00) 21.9 7.5 (15:10) 3.61 (15:20) 0 0 0 0 0
16-09-2019 28.1 (16:00) 14.9 (00:00) 21.5 7.5 (15:50) 3.61 (17:30) 0.1 0.1 0 0 0
15-09-2019 26.4 (15:00) 15.2 (00:00) 20.8 11.67 (16:10) 7.5 (16:10) 3.1 0 0.6 0.7 1.8

Gráficas

Temp. máximas Temp. mínimas Temp. medias Precipitaciones Rachas de viento máximas Velocidades máximas media en intervalos de 10 minutos

Datos horarios

Fecha y hora oficial Temperatura (ºC) Velocidad del viento (km/h) Dirección del viento Racha (km/h) Dirección de racha Precipitación (mm) Presión (hPa) Tendencia (hPa) Humedad (%)
2019-10-14 23:00:00 11.5 -- -- 12 Norte 0.4 -- -- 79
2019-10-14 22:00:00 12.6 -- -- 27 Norte 0.1 -- -- 65
2019-10-14 21:00:00 13.5 -- -- 38 Norte 0 -- -- 67
2019-10-14 20:00:00 16.3 -- -- 26 Norte 0 -- -- 81
2019-10-14 19:00:00 17.1 -- -- 37 Norte 0 -- -- 77
2019-10-14 18:00:00 17.7 -- -- 35 Norte 0.1 -- -- 80
2019-10-14 17:00:00 17 -- -- 47 Norte 1.2 -- -- 83
2019-10-14 16:00:00 18.5 -- -- 39 Norte 0.4 -- -- 75
2019-10-14 15:00:00 16.5 -- -- 45 Norte 1 -- -- 79
2019-10-14 14:00:00 18.7 -- -- 50 Norte 0 -- -- 64
2019-10-14 13:00:00 17.1 -- -- 47 Norte 0.3 -- -- 77
2019-10-14 12:00:00 17.4 -- -- 46 Norte 0 -- -- 74
2019-10-14 11:00:00 18.2 -- -- 47 Norte 0 -- -- 70
2019-10-14 10:00:00 18.4 -- -- 56 Norte 0 -- -- 68
2019-10-14 09:00:00 18.6 -- -- 66 Norte 0 -- -- 65
2019-10-14 08:00:00 18.3 -- -- 52 Norte 0 -- -- 66
2019-10-14 07:00:00 18.4 -- -- 47 Norte 0 -- -- 68
2019-10-14 06:00:00 18 -- -- 50 Norte 0 -- -- 71
2019-10-14 05:00:00 18.1 -- -- 40 Norte 0 -- -- 69
2019-10-14 04:00:00 18.3 -- -- 39 Norte 0 -- -- 68
2019-10-14 03:00:00 18.4 -- -- 39 Norte 0 -- -- 70
2019-10-14 02:00:00 18.9 -- -- 41 Norte 0 -- -- 67
2019-10-14 01:00:00 18.7 -- -- 50 Norte 0 -- -- 72
2019-10-14 00:00:00 18.8 -- -- 49 Norte 0 -- -- 71
2019-10-13 23:00:00 20.1 -- -- 53 Norte 0 -- -- 64
2019-10-13 22:00:00 20.5 -- -- 41 Norte 0 -- -- 63
2019-10-13 21:00:00 21.1 -- -- 32 Norte 0 -- -- 56
2019-10-13 20:00:00 21.6 -- -- 25 Norte 0 -- -- 52
2019-10-13 19:00:00 22.4 -- -- 32 Norte 0 -- -- 50
2019-10-13 18:00:00 23.1 -- -- 36 Norte 0 -- -- 47
2019-10-13 17:00:00 23.4 -- -- 32 Norte 0 -- -- 44
2019-10-13 16:00:00 23 -- -- 36 Norte 0 -- -- 45
2019-10-13 15:00:00 23.3 -- -- 39 Norte 0 -- -- 48
2019-10-13 14:00:00 23.2 -- -- 44 Norte 0 -- -- 50
2019-10-13 13:00:00 22.2 -- -- 44 Norte 0 -- -- 54
2019-10-13 12:00:00 20.6 -- -- 50 Norte 0 -- -- 61
2019-10-13 11:00:00 19.9 -- -- 45 Norte 0 -- -- 67
2019-10-13 10:00:00 18.8 -- -- 44 Norte 0 -- -- 73
2019-10-13 09:00:00 17.9 -- -- 41 Norte 0 -- -- 76
2019-10-13 08:00:00 17.6 -- -- 44 Norte 0 -- -- 76
2019-10-13 07:00:00 17.4 -- -- 46 Norte 0 -- -- 75
2019-10-13 06:00:00 17.5 -- -- 39 Norte 0 -- -- 75
2019-10-13 05:00:00 18 -- -- 35 Norte 0 -- -- 70
2019-10-13 04:00:00 18.3 -- -- 46 Norte 0 -- -- 70
2019-10-13 03:00:00 18.1 -- -- 50 Norte 0 -- -- 72
2019-10-13 02:00:00 18.1 -- -- 45 Norte 0 -- -- 72
2019-10-13 01:00:00 19.1 -- -- 49 Norte 0 -- -- 66
2019-10-13 00:00:00 19.7 -- -- 48 Norte 0 -- -- 62
2019-10-12 23:00:00 20.1 -- -- 50 Norte 0 -- -- 62
2019-10-12 22:00:00 20.5 -- -- 50 Norte 0 -- -- 61
2019-10-12 21:00:00 21.3 -- -- 42 Norte 0 -- -- 58
2019-10-12 20:00:00 22 -- -- 47 Norte 0 -- -- 54
2019-10-12 19:00:00 22.4 -- -- 41 Norte 0 -- -- 50
2019-10-12 18:00:00 23.1 -- -- 41 Norte 0 -- -- 48
2019-10-12 17:00:00 23.5 -- -- 41 Norte 0 -- -- 46
2019-10-12 16:00:00 24.1 -- -- 42 Norte 0 -- -- 45
2019-10-12 15:00:00 24.1 -- -- 45 Norte 0 -- -- 44
2019-10-12 14:00:00 23.4 -- -- 41 Norte 0 -- -- 47
2019-10-12 13:00:00 23.1 -- -- 36 Norte 0 -- -- 51
2019-10-12 12:00:00 21.4 -- -- 28 Norte 0 -- -- 60
2019-10-12 11:00:00 20.1 -- -- 23 Norte 0 -- -- 66
2019-10-12 10:00:00 19.3 -- -- 39 Norte 0 -- -- 70
2019-10-12 09:00:00 18.8 -- -- 41 Norte 0 -- -- 71
2019-10-12 08:00:00 19.4 -- -- 23 Norte 0 -- -- 67
2019-10-12 07:00:00 18.7 -- -- 46 Norte 0 -- -- 74
2019-10-12 06:00:00 18.4 -- -- 44 Norte 0 -- -- 75
2019-10-12 05:00:00 19.5 -- -- 21 Norte 0 -- -- 66
2019-10-12 04:00:00 19.9 -- -- 35 Norte 0 -- -- 65
2019-10-12 03:00:00 20 -- -- 48 Norte 0 -- -- 67
2019-10-12 02:00:00 19.8 -- -- 48 Norte 0 -- -- 69
2019-10-12 01:00:00 20.3 -- -- 45 Norte 0 -- -- 67
2019-10-12 00:00:00 20.9 -- -- 36 Norte 0 -- -- 61
2019-10-11 23:00:00 21.6 -- -- 33 Norte 0 -- -- 54
2019-10-11 22:00:00 21.4 -- -- 35 Norte 0 -- -- 55
2019-10-11 21:00:00 21.5 -- -- 34 Norte 0 -- -- 54
2019-10-11 20:00:00 21.8 -- -- 23 Norte 0 -- -- 50
2019-10-11 19:00:00 23.3 -- -- 18 Norte 0 -- -- 43
2019-10-11 18:00:00 25 -- -- 22 Norte 0 -- -- 39
2019-10-11 17:00:00 25.8 -- -- 18 Norte 0 -- -- 37
2019-10-11 16:00:00 25.7 -- -- 22 Norte 0 -- -- 38
2019-10-11 15:00:00 25.1 -- -- 20 Norte 0 -- -- 39
2019-10-11 14:00:00 24.5 -- -- 24 Norte 0 -- -- 41
2019-10-11 13:00:00 21.5 -- -- 12 Norte 0 -- -- 43
2019-10-11 12:00:00 18.2 -- -- 11 Norte 0 -- -- 47
2019-10-11 11:00:00 16.2 -- -- 7 Norte 0 -- -- 52
2019-10-11 10:00:00 14.1 -- -- 5 Norte 0 -- -- 63
2019-10-11 09:00:00 10.3 -- -- 4 Norte 0 -- -- 76
2019-10-11 08:00:00 9.4 -- -- 4 Norte 0 -- -- 75
2019-10-11 07:00:00 10.1 -- -- 6 Norte 0 -- -- 73
2019-10-11 06:00:00 9.8 -- -- 6 Norte 0 -- -- 72
2019-10-11 05:00:00 10.1 -- -- 8 Norte 0 -- -- 70
2019-10-11 04:00:00 11 -- -- 6 Norte 0 -- -- 65
2019-10-11 03:00:00 11.8 -- -- 7 Norte 0 -- -- 62
2019-10-11 02:00:00 12.8 -- -- 8 Norte 0 -- -- 59
2019-10-11 01:00:00 13.9 -- -- 8 Norte 0 -- -- 51
2019-10-11 00:00:00 13.7 -- -- 14 Norte 0 -- -- 52
2019-10-10 23:00:00 13.4 -- -- 14 Norte 0 -- -- 52
2019-10-10 22:00:00 14.3 -- -- 13 Norte 0 -- -- 48
2019-10-10 21:00:00 14.7 -- -- 13 Norte 0 -- -- 43
2019-10-10 20:00:00 15.8 -- -- 12 Norte 0 -- -- 40
2019-10-10 19:00:00 18 -- -- 10 Norte 0 -- -- 31
2019-10-10 18:00:00 21.2 -- -- 11 Norte 0 -- -- 25
2019-10-10 17:00:00 21.2 -- -- 11 Norte 0 -- -- 27
2019-10-10 16:00:00 20.7 -- -- 14 Norte 0 -- -- 32
2019-10-10 15:00:00 19.6 -- -- 17 Norte 0 -- -- 37
2019-10-10 14:00:00 18.2 -- -- 13 Norte 0 -- -- 42
2019-10-10 13:00:00 17 -- -- 12 Norte 0 -- -- 47
2019-10-10 12:00:00 14.8 -- -- 10 Norte 0 -- -- 55
2019-10-10 11:00:00 13.4 -- -- 9 Norte 0 -- -- 63
2019-10-10 10:00:00 13 -- -- 9 Norte 0 -- -- 70
2019-10-10 09:00:00 10.4 -- -- 12 Norte 0 -- -- 81
2019-10-10 08:00:00 9.7 -- -- 12 Norte 0 -- -- 83
2019-10-10 07:00:00 10 -- -- 13 Norte 0 -- -- 83
2019-10-10 06:00:00 10 -- -- 12 Norte 0 -- -- 82
2019-10-10 05:00:00 10.4 -- -- 19 Norte 0 -- -- 80
2019-10-10 04:00:00 11.2 -- -- 18 Norte 0 -- -- 75
2019-10-10 03:00:00 11.5 -- -- 19 Norte 0 -- -- 73
2019-10-10 02:00:00 11.9 -- -- 26 Norte 0 -- -- 69
2019-10-10 01:00:00 12.4 -- -- 24 Norte 0 -- -- 66
2019-10-10 00:00:00 12.8 -- -- 29 Norte 0 -- -- 64
2019-10-09 23:00:00 12.7 -- -- 30 Norte 0 -- -- 65
2019-10-09 22:00:00 13 -- -- 35 Norte 0 -- -- 62
2019-10-09 21:00:00 13.6 -- -- 40 Norte 0 -- -- 60
2019-10-09 20:00:00 14.1 -- -- 29 Norte 0 -- -- 57
2019-10-09 19:00:00 14.9 -- -- 39 Norte 0 -- -- 54
2019-10-09 18:00:00 16.7 -- -- 43 Norte 0 -- -- 48
2019-10-09 17:00:00 18.2 -- -- 43 Norte 0 -- -- 44
2019-10-09 16:00:00 18.4 -- -- 37 Norte 0 -- -- 44
2019-10-09 15:00:00 18.6 -- -- 32 Norte 0 -- -- 44
2019-10-09 14:00:00 18.6 -- -- 30 Norte 0 -- -- 45
2019-10-09 13:00:00 18 -- -- 32 Norte 0 -- -- 53
2019-10-09 12:00:00 17.1 -- -- 30 Norte 0 -- -- 61
2019-10-09 11:00:00 16 -- -- 23 Norte 0 -- -- 70
2019-10-09 10:00:00 14.3 -- -- 18 Norte 0 -- -- 80
2019-10-09 09:00:00 13.1 -- -- 5 Norte 0 -- -- 87
2019-10-09 08:00:00 12.8 -- -- 6 Norte 0 -- -- 88
2019-10-09 07:00:00 13.3 -- -- 20 Norte 0 -- -- 88
2019-10-09 06:00:00 13.2 -- -- 10 Norte 0 -- -- 88
2019-10-09 05:00:00 13.1 -- -- 8 Norte 0 -- -- 87
2019-10-09 04:00:00 14.6 -- -- 8 Norte 0 -- -- 82
2019-10-09 03:00:00 15.6 -- -- 10 Norte 0 -- -- 81
2019-10-09 02:00:00 16.2 -- -- 10 Norte 0 -- -- 79
2019-10-09 01:00:00 16.6 -- -- 13 Norte 0 -- -- 77
2019-10-09 00:00:00 17.1 -- -- 12 Norte 0 -- -- 71
2019-10-08 23:00:00 18 -- -- 13 Norte 0 -- -- 64
2019-10-08 22:00:00 18.6 -- -- 13 Norte 0 -- -- 51
2019-10-08 21:00:00 19.8 -- -- 14 Norte 0 -- -- 44
2019-10-08 20:00:00 21.4 -- -- 15 Norte 0 -- -- 41
2019-10-08 19:00:00 24.2 -- -- 14 Norte 0 -- -- 34
2019-10-08 18:00:00 25.9 -- -- 13 Norte 0 -- -- 32
2019-10-08 17:00:00 26.2 -- -- 14 Norte 0 -- -- 32
2019-10-08 16:00:00 25.9 -- -- 15 Norte 0 -- -- 32
2019-10-08 15:00:00 25.3 -- -- 12 Norte 0 -- -- 32
2019-10-08 14:00:00 23.9 -- -- 13 Norte 0 -- -- 34
2019-10-08 13:00:00 21.8 -- -- 12 Norte 0 -- -- 36
2019-10-08 12:00:00 19.9 -- -- 8 Norte 0 -- -- 36
2019-10-08 11:00:00 18.2 -- -- 6 Norte 0 -- -- 38
2019-10-08 10:00:00 16 -- -- 6 Norte 0 -- -- 39
2019-10-08 09:00:00 12.8 -- -- 6 Norte 0 -- -- 44
2019-10-08 08:00:00 10.8 -- -- 10 Norte 0 -- -- 41
2019-10-08 07:00:00 11.6 -- -- 10 Norte 0 -- -- 40
2019-10-08 06:00:00 12 -- -- 9 Norte 0 -- -- 40
2019-10-08 05:00:00 12.2 -- -- 8 Norte 0 -- -- 39
2019-10-08 04:00:00 12.9 -- -- 6 Norte 0 -- -- 37
2019-10-08 03:00:00 15 -- -- 19 Norte 0 -- -- 32
2019-10-08 02:00:00 13.9 -- -- 13 Norte 0 -- -- 36
2019-10-08 01:00:00 16.6 -- -- 19 Norte 0 -- -- 29
2019-10-08 00:00:00 16.3 -- -- 12 Norte 0 -- -- 32
2019-10-07 23:00:00 16.2 -- -- 23 Norte 0 -- -- 34
2019-10-07 22:00:00 16.7 -- -- 18 Norte 0 -- -- 36
2019-10-07 21:00:00 16.7 -- -- 27 Norte 0 -- -- 38
2019-10-07 20:00:00 17.6 -- -- 44 Norte 0 -- -- 37
2019-10-07 19:00:00 18.9 -- -- 40 Norte 0 -- -- 37
2019-10-07 18:00:00 20.2 -- -- 34 Norte 0 -- -- 35
2019-10-07 17:00:00 21.2 -- -- 34 Norte 0 -- -- 33
2019-10-07 16:00:00 21.1 -- -- 32 Norte 0 -- -- 33
2019-10-07 15:00:00 20.4 -- -- 30 Norte 0 -- -- 35
2019-10-07 14:00:00 19.5 -- -- 29 Norte 0 -- -- 40
2019-10-07 13:00:00 18.4 -- -- 31 Norte 0 -- -- 46
2019-10-07 12:00:00 16.4 -- -- 36 Norte 0 -- -- 50
2019-10-07 11:00:00 15 -- -- 42 Norte 0 -- -- 58
2019-10-07 10:00:00 14 -- -- 35 Norte 0 -- -- 65
2019-10-07 09:00:00 12.7 -- -- 30 Norte 0 -- -- 70
2019-10-07 08:00:00 11.9 -- -- 28 Norte 0 -- -- 75
2019-10-07 07:00:00 11.4 -- -- 18 Norte 0 -- -- 76
2019-10-07 06:00:00 11.5 -- -- 27 Norte 0 -- -- 75
2019-10-07 05:00:00 12 -- -- 29 Norte 0 -- -- 72
2019-10-07 04:00:00 12.1 -- -- 30 Norte 0 -- -- 69
2019-10-07 03:00:00 12.4 -- -- 33 Norte 0 -- -- 66
2019-10-07 02:00:00 12.6 -- -- 35 Sudoeste 0 -- -- 65
2019-10-07 01:00:00 13 -- -- 31 Sur 0 -- -- 65
2019-10-07 00:00:00 13.5 -- -- 26 Sur 0 -- -- 69
2019-10-06 23:00:00 14 -- -- 28 Sudoeste 0 -- -- 71
2019-10-06 22:00:00 14.2 -- -- 29 Sur 0 -- -- 71
2019-10-06 21:00:00 14.8 -- -- 24 Sudoeste 0 -- -- 67
2019-10-06 20:00:00 15.4 -- -- 29 Sur 0 -- -- 65
2019-10-06 19:00:00 16.4 -- -- 38 Sur 0 -- -- 61
2019-10-06 18:00:00 17.6 -- -- 40 Sur 0 -- -- 55
2019-10-06 17:00:00 19.2 -- -- 36 Sur 0 -- -- 51
2019-10-06 16:00:00 19.8 -- -- 34 Sur 0 -- -- 53
2019-10-06 15:00:00 18.3 -- -- 39 Sudoeste 0 -- -- 59
2019-10-06 14:00:00 18.4 15 Sudoeste 28 Sudoeste 0 -- -- 57
2019-10-06 13:00:00 16.7 13 Sudoeste 26 Sudoeste 0 -- -- 58
2019-10-06 12:00:00 16.5 14 Sudoeste 27 Sudoeste 0 -- -- 57
2019-10-06 11:00:00 15.3 13 Sudoeste 23 Sudoeste 0 -- -- 58
2019-10-06 10:00:00 14 9 Sudoeste 23 Sudoeste 0 -- -- 67
2019-10-06 09:00:00 13.3 14 Sudoeste 27 Sudoeste 0 -- -- 72
2019-10-06 08:00:00 12.5 14 Sudoeste 24 Sudoeste 0 -- -- 79
2019-10-06 07:00:00 11.7 0 Calma 18 Sudoeste 0 -- -- 84
2019-10-06 06:00:00 12.2 4 Sudoeste 18 Sudoeste 0 -- -- 85
2019-10-06 05:00:00 12.4 7 Sudoeste 14 Sudoeste 0 -- -- 86
2019-10-06 04:00:00 12.3 9 Sudoeste 19 Sudoeste 0 -- -- 87
2019-10-06 03:00:00 12.3 0 Calma 19 Sudoeste 0 -- -- 84
2019-10-06 02:00:00 13 5 Sudoeste 12 Sudoeste 0 -- -- 83
2019-10-06 01:00:00 13.2 0 Calma 12 Sudoeste 0 -- -- 79
2019-10-06 00:00:00 14.5 8 Sudoeste 21 Sudoeste 0 -- -- 74
2019-10-05 23:00:00 14.6 2 Sudoeste 12 Sudoeste 0 -- -- 72
2019-10-05 22:00:00 15.6 3 Sudoeste 11 Sudoeste 0 -- -- 68
2019-10-05 21:00:00 15.4 0 Calma 9 Sur 0 -- -- 62
2019-10-05 20:00:00 17.8 0 Calma 13 Sur 0 -- -- 54
2019-10-05 19:00:00 20.1 6 Sur 18 Sur 0 -- -- 47
2019-10-05 18:00:00 22.1 12 Sudoeste 22 Sudoeste 0 -- -- 42
2019-10-05 17:00:00 23.2 8 Sudoeste 19 Sudoeste 0 -- -- 41
2019-10-05 16:00:00 23.1 10 Sudoeste 22 Sur 0 -- -- 40
2019-10-05 15:00:00 22.3 10 Sudoeste 22 Sudoeste 0 -- -- 43
2019-10-05 14:00:00 21.2 7 Sudoeste 17 Sudoeste 0 -- -- 47
2019-10-05 13:00:00 19.5 8 Sudoeste 22 Sudoeste 0 -- -- 52
2019-10-05 12:00:00 17.9 7 Sudoeste 19 Sudoeste 0 -- -- 60
2019-10-05 11:00:00 15.4 9 Sudoeste 20 Sudoeste 0 -- -- 67
2019-10-05 10:00:00 14.4 7 Sudoeste 20 Sur 0 -- -- 71
2019-10-05 09:00:00 13.2 6 Sudoeste 21 Sudoeste 0 -- -- 76
2019-10-05 08:00:00 12.5 8 Sudoeste 24 Sudoeste 0 -- -- 78
2019-10-05 07:00:00 12.7 10 Sudoeste 26 Sudoeste 0 -- -- 78
2019-10-05 06:00:00 13 9 Sudoeste 20 Sudoeste 0 -- -- 79
2019-10-05 05:00:00 13.5 12 Sudoeste 24 Sudoeste 0 -- -- 77
2019-10-05 04:00:00 13.4 8 Sudoeste 16 Sur 0 -- -- 78
2019-10-05 03:00:00 13.8 9 Sudoeste 18 Sudoeste 0 -- -- 79
2019-10-05 02:00:00 14.2 10 Sudoeste 25 Sudoeste 0 -- -- 77
2019-10-05 01:00:00 14.4 12 Sudoeste 26 Sur 0 -- -- 76
2019-10-05 00:00:00 14.8 17 Sudoeste 30 Sudoeste 0 -- -- 74
2019-10-04 23:00:00 15.2 11 Sudoeste 28 Sudoeste 0 -- -- 72
2019-10-04 22:00:00 15.8 14 Sudoeste 26 Sudoeste 0 -- -- 69
2019-10-04 21:00:00 16.5 8 Sudoeste 29 Sudoeste 0 -- -- 67
2019-10-04 20:00:00 17.8 14 Sudoeste 30 Sudoeste 0 -- -- 62
2019-10-04 19:00:00 19.4 15 Sudoeste 30 Sur 0 -- -- 55
2019-10-04 18:00:00 21.1 13 Sur 27 Sur 0 -- -- 49
2019-10-04 17:00:00 21.9 10 Sur 26 Sur 0 -- -- 49
2019-10-04 16:00:00 21.3 9 Sudoeste 26 Sudoeste 0 -- -- 52
2019-10-04 15:00:00 21.9 14 Sudoeste 24 Sudoeste 0 -- -- 52
2019-10-04 14:00:00 21.3 10 Sudoeste 22 Sur 0 -- -- 54
2019-10-04 13:00:00 20.9 10 Sudoeste 22 Sudoeste 0 -- -- 56
2019-10-04 12:00:00 19.7 11 Sur 18 Sudoeste 0 -- -- 59
2019-10-04 11:00:00 18 3 Sudoeste 9 Sudoeste 0 -- -- 60
2019-10-04 10:00:00 15.5 4 Sudoeste 9 Sudoeste 0 -- -- 74
2019-10-04 09:00:00 12.6 4 Oeste 9 Oeste 0 -- -- 82
2019-10-04 08:00:00 11.4 0 Calma 5 Sudoeste 0 -- -- 83
2019-10-04 07:00:00 11.9 0 Calma 0 Calma 0 -- -- 79
2019-10-04 06:00:00 12.3 0 Calma 4 Oeste 0 -- -- 73
2019-10-04 05:00:00 11.9 0 Calma 8 Sur 0 -- -- 64
2019-10-04 04:00:00 11.4 0 Calma 4 Sudoeste 0 -- -- 62
2019-10-04 03:00:00 12.5 0 Calma 7 Sudoeste 0 -- -- 53
2019-10-04 02:00:00 12.9 3 Sudoeste 13 Sudoeste 0 -- -- 52
2019-10-04 01:00:00 14.2 5 Sudoeste 19 Sur 0 -- -- 53
2019-10-04 00:00:00 14.6 9 Sudoeste 21 Sudoeste 0 -- -- 56
2019-10-03 23:00:00 14.8 8 Sudoeste 27 Sudoeste 0 -- -- 56
2019-10-03 22:00:00 15.7 13 Sudoeste 28 Sur 0 -- -- 53
2019-10-03 21:00:00 16.6 14 Sudoeste 32 Sur 0 -- -- 47
2019-10-03 20:00:00 17.6 17 Sudoeste 34 Sudoeste 0 -- -- 41
2019-10-03 19:00:00 18.7 17 Sudoeste 32 Sudoeste 0 -- -- 39
2019-10-03 18:00:00 20.4 21 Sudoeste 35 Sudoeste 0 -- -- 34
2019-10-03 17:00:00 21.1 22 Sudoeste 35 Sudoeste 0 -- -- 29
2019-10-03 16:00:00 21.5 14 Sudoeste 30 Sudoeste 0 -- -- 29
2019-10-03 15:00:00 20.7 12 Sudoeste 21 Sudoeste 0 -- -- 35
2019-10-03 14:00:00 19.6 5 Sudoeste 18 Sur 0 -- -- 44
2019-10-03 13:00:00 18.2 4 Sudoeste 18 Sudoeste 0 -- -- 52
2019-10-03 12:00:00 15 8 Sudoeste 18 Sur 0 -- -- 60
2019-10-03 11:00:00 13.5 10 Sudoeste 16 Sudoeste 0 -- -- 67
2019-10-03 10:00:00 12.8 8 Sudoeste 18 Sudoeste 0 -- -- 73
2019-10-03 09:00:00 11.5 9 Sudoeste 21 Sudoeste 0 -- -- 77
2019-10-03 08:00:00 11.1 5 Sudoeste 18 Sudoeste 0 -- -- 80
2019-10-03 07:00:00 11.6 6 Sudoeste 17 Sudoeste 0 -- -- 79
2019-10-03 06:00:00 12.3 11 Sudoeste 21 Sudoeste 0 -- -- 78
2019-10-03 05:00:00 12.4 6 Sudoeste 18 Sur 0 -- -- 79
2019-10-03 04:00:00 12.5 12 Sudoeste 40 Sur 0 -- -- 81
2019-10-03 03:00:00 12.7 14 Sudoeste 29 Sudoeste 0 -- -- 80
2019-10-03 02:00:00 12.9 9 Sudoeste 28 Sudoeste 0 -- -- 74
2019-10-03 01:00:00 13.4 15 Sudoeste 34 Sur 0 -- -- 72
2019-10-03 00:00:00 13.5 23 Sudoeste 44 Sudoeste 0 -- -- 71
2019-10-02 23:00:00 13.9 21 Sudoeste 32 Sudoeste 0 -- -- 71
2019-10-02 22:00:00 13.9 13 Sudoeste 33 Sudoeste 0 -- -- 74
2019-10-02 21:00:00 14 16 Sudoeste 31 Sudoeste 0 -- -- 74
2019-10-02 20:00:00 14.2 21 Sudoeste 37 Sur 0 -- -- 74
2019-10-02 19:00:00 15.3 17 Sudoeste 33 Sudoeste 0 -- -- 68
2019-10-02 18:00:00 16 15 Sudoeste 36 Sudoeste 0 -- -- 65
2019-10-02 17:00:00 16.3 21 Sudoeste 41 Sudoeste 0 -- -- 64
2019-10-02 16:00:00 16.9 21 Sur 46 Sur 0 -- -- 60
2019-10-02 15:00:00 17.1 17 Sur 37 Sudoeste 0 -- -- 65
2019-10-02 14:00:00 16 17 Sudoeste 29 Sudoeste 0 -- -- 65
2019-10-02 13:00:00 14.7 16 Sudoeste 33 Sudoeste 0 -- -- 79
2019-10-02 12:00:00 14.6 17 Sudoeste 31 Sudoeste 0 -- -- 75
2019-10-02 11:00:00 14.3 14 Sudoeste 36 Sudoeste 0 -- -- 77
2019-10-02 10:00:00 13.9 13 Sudoeste 26 Sudoeste 0 -- -- 76
2019-10-02 09:00:00 13.5 12 Sudoeste 24 Sudoeste 0 -- -- 78
2019-10-02 08:00:00 13.2 15 Sudoeste 30 Sudoeste 0 -- -- 77
2019-10-02 07:00:00 13.6 16 Sudoeste 27 Sudoeste 0 -- -- 72
2019-10-02 06:00:00 14 12 Sudoeste 26 Sudoeste 0 -- -- 69
2019-10-02 05:00:00 14.2 13 Sudoeste 25 Sudoeste 0 -- -- 70
2019-10-02 04:00:00 14.6 13 Sudoeste 28 Sudoeste 0 -- -- 70
2019-10-02 03:00:00 15.1 13 Sudoeste 26 Sudoeste 0 -- -- 70
2019-10-02 02:00:00 15.8 13 Sudoeste 26 Sudoeste 0 -- -- 71
2019-10-02 01:00:00 16.1 12 Sudoeste 27 Sudoeste 0 -- -- 71
2019-10-02 00:00:00 16.1 7 Sudoeste 18 Sudoeste 0 -- -- 70
2019-10-01 23:00:00 16.1 13 Sudoeste 22 Sudoeste 0 -- -- 69
2019-10-01 22:00:00 16.3 9 Sudoeste 29 Sudoeste 0 -- -- 66
2019-10-01 21:00:00 17.3 11 Sudoeste 29 Sudoeste 0 -- -- 62
2019-10-01 20:00:00 18.3 14 Sudoeste 31 Sudoeste 0 -- -- 57
2019-10-01 19:00:00 20.1 15 Sudoeste 33 Sur 0 -- -- 50
2019-10-01 18:00:00 22.1 15 Sudoeste 32 Sur 0 -- -- 44
2019-10-01 17:00:00 23.3 15 Sur 27 Sur 0 -- -- 44
2019-10-01 16:00:00 22.9 14 Sudoeste 33 Sudoeste 0 -- -- 47
2019-10-01 15:00:00 24.5 11 Sudoeste 23 Sudoeste 0 -- -- 43
2019-10-01 14:00:00 23.7 10 Sudoeste 21 Sur 0 -- -- 44
2019-10-01 13:00:00 22.9 8 Sur 15 Sudoeste 0 -- -- 45
2019-10-01 12:00:00 21.4 6 Sudoeste 13 Sur 0 -- -- 48
2019-10-01 11:00:00 19.8 0 Calma 11 Sur 0 -- -- 54
2019-10-01 10:00:00 19.1 0 Calma 4 Sur 0 -- -- 59
2019-10-01 09:00:00 14.5 0 Calma 6 Sur 0 -- -- 78
2019-10-01 08:00:00 12.9 0 Calma 5 Sur 0 -- -- 78
2019-10-01 07:00:00 13.6 0 Calma 4 Sur 0 -- -- 75
2019-10-01 06:00:00 14.4 3 Sudoeste 8 Sudoeste 0 -- -- 71
2019-10-01 05:00:00 14.8 5 Sudoeste 8 Sur 0 -- -- 70
2019-10-01 04:00:00 15.3 3 Sudoeste 9 Sudoeste 0 -- -- 67
2019-10-01 03:00:00 15.9 4 Sudoeste 8 Sudoeste 0 -- -- 62
2019-10-01 02:00:00 17.3 2 Sur 9 Sudoeste 0 -- -- 53
2019-10-01 01:00:00 19.2 0 Calma 8 Sudoeste 0 -- -- 48
2019-10-01 00:00:00 18.7 6 Sudoeste 10 Sudoeste 0 -- -- 49
2019-09-30 23:00:00 19 3 Sur 13 Sudoeste 0 -- -- 46
2019-09-30 22:00:00 20.6 10 Sudoeste 13 Sudoeste 0 -- -- 41
2019-09-30 21:00:00 20.5 7 Sur 9 Sudoeste 0 -- -- 42
2019-09-30 20:00:00 22.1 6 Sur 10 Sudoeste 0 -- -- 38
2019-09-30 19:00:00 25.7 5 Sudoeste 14 Sudoeste 0 -- -- 31
2019-09-30 18:00:00 27.2 6 Sudoeste 18 Oeste 0 -- -- 29
2019-09-30 17:00:00 27.2 9 Sudoeste 18 Sur 0 -- -- 28
2019-09-30 16:00:00 26.8 6 Sudoeste 13 Sur 0 -- -- 33
2019-09-30 15:00:00 25.6 6 Sudoeste 14 Sur 0 -- -- 35
2019-09-30 14:00:00 24.7 7 Sur 15 Sudoeste 0 -- -- 37
2019-09-30 13:00:00 22.9 5 Sur 9 Sudoeste 0 -- -- 41
2019-09-30 12:00:00 20.7 2 Sudoeste 8 Oeste 0 -- -- 48
2019-09-30 11:00:00 18.4 4 Sudoeste 7 Sudoeste 0 -- -- 58
2019-09-30 10:00:00 16.2 3 Sur 7 Sur 0 -- -- 67
2019-09-30 09:00:00 13.2 0 Calma 7 Sudoeste 0 -- -- 84
2019-09-30 08:00:00 11.6 5 Sudoeste 9 Sudoeste 0 -- -- 83
2019-09-30 07:00:00 11.9 3 Sudoeste 9 Sudoeste 0 -- -- 83
2019-09-30 06:00:00 12.2 4 Sur 8 Sudoeste 0 -- -- 82
2019-09-30 05:00:00 13.2 4 Sudoeste 8 Sudoeste 0 -- -- 79
2019-09-30 04:00:00 14.6 0 Calma 8 Oeste 0 -- -- 74
2019-09-30 03:00:00 15.9 3 Sudoeste 12 Sudoeste 0 -- -- 71
2019-09-30 02:00:00 14.6 2 Sudoeste 7 Sudoeste 0 -- -- 70
2019-09-30 01:00:00 14.6 3 Sur 11 Sudoeste 0 -- -- 67
2019-09-30 00:00:00 15.6 3 Sur 5 Sudoeste 0 -- -- 62
2019-09-29 23:00:00 16.3 0 Calma 8 Sudoeste 0 -- -- 53
2019-09-29 22:00:00 18.5 0 Calma 19 Sudoeste 0 -- -- 43
2019-09-29 21:00:00 18.8 7 Sudoeste 11 Sudoeste 0 -- -- 39
2019-09-29 20:00:00 20.4 6 Sudoeste 12 Sudoeste 0 -- -- 34
2019-09-29 19:00:00 25.6 4 Sudoeste 13 Sudoeste 0 -- -- 25
2019-09-29 18:00:00 27.1 9 Sudoeste 17 Sudoeste 0 -- -- 23
2019-09-29 17:00:00 27.2 8 Sudoeste 24 Sudoeste 0 -- -- 25
2019-09-29 16:00:00 26.9 8 Sudoeste 21 Sudoeste 0 -- -- 31
2019-09-29 15:00:00 26.9 5 Sudoeste 19 Sudoeste 0 -- -- 33
2019-09-29 14:00:00 25.2 6 Sur 16 Sudoeste 0 -- -- 38
2019-09-29 13:00:00 23.8 5 Sudoeste 13 Sudoeste 0 -- -- 41
2019-09-29 12:00:00 21.4 4 Sudoeste 10 Sudoeste 0 -- -- 48
2019-09-29 11:00:00 19.8 5 Sudoeste 9 Sudoeste 0 -- -- 54
2019-09-29 10:00:00 17.6 0 Calma 9 Sur 0 -- -- 66
2019-09-29 09:00:00 14.4 0 Calma 9 Sudoeste 0 -- -- 84
2019-09-29 08:00:00 12.6 0 Calma 8 Sur 0 -- -- 83
2019-09-29 07:00:00 12.7 0 Calma 9 Sudoeste 0 -- -- 81
2019-09-29 06:00:00 13.4 3 Sur 6 Sur 0 -- -- 80
2019-09-29 05:00:00 14.1 2 Sudoeste 8 Sudoeste 0 -- -- 76
2019-09-29 04:00:00 14.5 4 Sudoeste 9 Sudoeste 0 -- -- 75
2019-09-29 03:00:00 15.4 4 Sur 10 Sur 0 -- -- 71
2019-09-29 02:00:00 15.7 0 Calma 8 Sudoeste 0 -- -- 64
2019-09-29 01:00:00 18.1 0 Calma 6 Sur 0 -- -- 52
2019-09-29 00:00:00 19.5 4 Sudoeste 16 Sur 0 -- -- 46
2019-09-28 23:00:00 19.5 9 Sur 14 Sur 0 -- -- 48
2019-09-28 22:00:00 19.1 5 Sur 14 Sur 0 -- -- 45
2019-09-28 21:00:00 19.5 8 Sur 13 Sur 0 -- -- 43
2019-09-28 20:00:00 19.7 10 Sudoeste 14 Sudoeste 0 -- -- 38
2019-09-28 19:00:00 23.6 5 Sudoeste 16 Sur 0 -- -- 31
2019-09-28 18:00:00 25.3 5 Sur 19 Sudoeste 0 -- -- 29
2019-09-28 17:00:00 25.5 9 Sur 22 Sudoeste 0 -- -- 30
2019-09-28 16:00:00 25.6 8 Sudoeste 21 Sudoeste 0 -- -- 33
2019-09-28 15:00:00 24.8 8 Sudoeste 18 Oeste 0 -- -- 37
2019-09-28 14:00:00 22.7 5 Sudoeste 12 Sur 0 -- -- 45
2019-09-28 13:00:00 20.8 8 Sur 12 Sur 0 -- -- 50
2019-09-28 12:00:00 19 5 Sudoeste 11 Sudoeste 0 -- -- 55
2019-09-28 11:00:00 17.2 3 Sudoeste 6 Sudoeste 0 -- -- 64
2019-09-28 10:00:00 15.6 4 Sudoeste 6 Sudoeste 0 -- -- 77
2019-09-28 09:00:00 12.6 0 Calma 4 Sur 0 -- -- 88
2019-09-28 08:00:00 11 0 Calma 4 Sudoeste 0 -- -- 87
2019-09-28 07:00:00 12.2 0 Calma 4 Sudoeste 0 -- -- 86
2019-09-28 06:00:00 13.4 4 Sudoeste 10 Sudoeste 0 -- -- 85
2019-09-28 05:00:00 13.9 0 Calma 11 Oeste 0 -- -- 84
2019-09-28 04:00:00 14.2 4 Sudoeste 12 Sudoeste 0 -- -- 84
2019-09-28 03:00:00 14.6 4 Sudoeste 14 Sudoeste 0 -- -- 82
2019-09-28 02:00:00 15.3 3 Sudoeste 14 Sudoeste 0 -- -- 77
2019-09-28 01:00:00 15.9 2 Sudoeste 21 Sudoeste 0 -- -- 73
2019-09-28 00:00:00 16.6 7 Sudoeste 16 Sudoeste 0 -- -- 71
2019-09-27 23:00:00 17 4 Sudoeste 9 Sudoeste 0 -- -- 69
2019-09-27 22:00:00 17 3 Sudoeste 10 Sur 0 -- -- 66
2019-09-27 21:00:00 19.4 2 Sudoeste 25 Sudoeste 0 -- -- 55
2019-09-27 20:00:00 21.5 9 Sudoeste 16 Sudoeste 0 -- -- 41
2019-09-27 19:00:00 23.5 3 Sudoeste 14 Sudoeste 0 -- -- 31
2019-09-27 18:00:00 24.6 8 Sudoeste 18 Sudoeste 0 -- -- 29
2019-09-27 17:00:00 24.9 6 Sudoeste 17 Sudoeste 0 -- -- 31
2019-09-27 16:00:00 24.8 9 Sudoeste 17 Sudoeste 0 -- -- 34
2019-09-27 15:00:00 24.3 8 Sudoeste 20 Sur 0 -- -- 35
2019-09-27 14:00:00 23.5 10 Sur 18 Sudoeste 0 -- -- 37
2019-09-27 13:00:00 21.9 5 Sudoeste 14 Sur 0 -- -- 45
2019-09-27 12:00:00 19.1 9 Sudoeste 18 Sudoeste 0 -- -- 53
2019-09-27 11:00:00 18.5 3 Sudoeste 8 Sudoeste 0 -- -- 59
2019-09-27 10:00:00 16.3 3 Sur 7 Sur 0 -- -- 68
2019-09-27 09:00:00 13.7 3 Sur 9 Sudoeste 0 -- -- 84
2019-09-27 08:00:00 11.6 4 Sur 8 Sudoeste 0 -- -- 84
2019-09-27 07:00:00 12.4 0 Calma 5 Sudoeste 0 -- -- 81
2019-09-27 06:00:00 12.8 2 Sur 6 Sudoeste 0 -- -- 80
2019-09-27 05:00:00 13.4 2 Sudoeste 9 Sur 0 -- -- 78
2019-09-27 04:00:00 13.8 4 Sudoeste 8 Sudoeste 0 -- -- 75
2019-09-27 03:00:00 14.6 0 Calma 7 Sudoeste 0 -- -- 69
2019-09-27 02:00:00 16 0 Calma 12 Sudoeste 0 -- -- 63
2019-09-27 01:00:00 17.1 6 Sudoeste 11 Sudoeste 0 -- -- 60
2019-09-27 00:00:00 16.7 5 Sur 11 Sudoeste 0 -- -- 60
2019-09-26 23:00:00 17.1 5 Sudoeste 9 Sudoeste 0 -- -- 58
2019-09-26 22:00:00 18 4 Sur 13 Sudoeste 0 -- -- 55
2019-09-26 21:00:00 18.8 4 Sudoeste 13 Sudoeste 0 -- -- 49
2019-09-26 20:00:00 20.3 5 Sur 9 Sur 0 -- -- 44
2019-09-26 19:00:00 24.1 4 Sudoeste 13 Sudoeste 0 -- -- 34
2019-09-26 18:00:00 25.4 5 Sudoeste 14 Sudoeste 0 -- -- 31
2019-09-26 17:00:00 26 3 Sudoeste 19 Sudoeste 0 -- -- 31
2019-09-26 16:00:00 25.2 8 Sudoeste 17 Sudoeste 0 -- -- 32
2019-09-26 15:00:00 24.3 5 Sudoeste 15 Sudoeste 0 -- -- 37
2019-09-26 14:00:00 23.3 8 Sudoeste 15 Sudoeste 0 -- -- 41
2019-09-26 13:00:00 22.2 6 Sudoeste 12 Sudoeste 0 -- -- 43
2019-09-26 12:00:00 20.7 4 Sudoeste 9 Sudoeste 0 -- -- 51
2019-09-26 11:00:00 18.1 2 Sur 8 Sudoeste 0 -- -- 61
2019-09-26 10:00:00 16.8 0 Calma 5 Sudoeste 0 -- -- 67
2019-09-26 09:00:00 13.5 0 Calma 7 Sudoeste 0 -- -- 85
2019-09-26 08:00:00 11.2 0 Calma 6 Sudoeste 0 -- -- 85
2019-09-26 07:00:00 11.5 4 Sudoeste 7 Sur 0 -- -- 85
2019-09-26 06:00:00 11.8 0 Calma 9 Sudoeste 0 -- -- 83
2019-09-26 05:00:00 12.1 5 Sudoeste 9 Sudoeste 0 -- -- 81
2019-09-26 04:00:00 12.6 0 Calma 9 Sudoeste 0 -- -- 78
2019-09-26 03:00:00 13.9 4 Sudoeste 7 Sudoeste 0 -- -- 75
2019-09-26 02:00:00 14.2 2 Sudoeste 7 Sudoeste 0 -- -- 74
2019-09-26 01:00:00 13.9 4 Sudoeste 8 Sudoeste 0 -- -- 70
2019-09-26 00:00:00 16 5 Sudoeste 10 Sudoeste 0 -- -- 62
2019-09-25 23:00:00 16.4 6 Sudoeste 10 Oeste 0 -- -- 59
2019-09-25 22:00:00 16.6 3 Sudoeste 10 Sudoeste 0 -- -- 57
2019-09-25 21:00:00 16.7 4 Sudoeste 10 Sudoeste 0 -- -- 54
2019-09-25 20:00:00 17.3 3 Sudoeste 17 Sur 0 -- -- 52
2019-09-25 19:00:00 18.1 10 Sur 20 Sudoeste 0 -- -- 49
2019-09-25 18:00:00 18.9 12 Sur 24 Sur 0 -- -- 46
2019-09-25 17:00:00 20 13 Sudoeste 26 Sur 0 -- -- 43
2019-09-25 16:00:00 20.1 10 Sudoeste 21 Sudoeste 0 -- -- 44
2019-09-25 15:00:00 19.8 10 Sudoeste 21 Sur 0 -- -- 45
2019-09-25 14:00:00 19.2 10 Sudoeste 23 Sudoeste 0 -- -- 47
2019-09-25 13:00:00 18 12 Sudoeste 24 Oeste 0 -- -- 51
2019-09-25 12:00:00 17.2 10 Sudoeste 22 Sudoeste 0 -- -- 52
2019-09-25 11:00:00 16.3 11 Sudoeste 23 Sur 0 -- -- 57
2019-09-25 10:00:00 15.4 9 Sudoeste 17 Sudoeste 0 -- -- 64
2019-09-25 09:00:00 14.4 3 Sudoeste 16 Sudoeste 0 -- -- 69
2019-09-25 08:00:00 14.2 6 Sudoeste 13 Sudoeste 0 -- -- 72
2019-09-25 07:00:00 13.4 4 Sudoeste 12 Sudoeste 0 -- -- 73
2019-09-25 06:00:00 13.7 6 Sudoeste 20 Sudoeste 0 -- -- 73
2019-09-25 05:00:00 14 13 Sudoeste 25 Sudoeste 0 -- -- 75
2019-09-25 04:00:00 14.3 13 Sudoeste 28 Sur 0 -- -- 75
2019-09-25 03:00:00 14.4 15 Sudoeste 27 Sudoeste 0 -- -- 78
2019-09-25 02:00:00 14.4 4 Sur 15 Sur 0 -- -- 81
2019-09-25 01:00:00 14.8 4 Sudoeste 10 Oeste 0 -- -- 81
2019-09-25 00:00:00 15.9 3 Sudoeste 21 Sudoeste 0.9 -- -- 80
2019-09-24 23:00:00 17.4 7 Sur 17 Sudoeste 0 -- -- 74
2019-09-24 22:00:00 17.9 3 Sudoeste 9 Sudoeste 0 -- -- 71
2019-09-24 21:00:00 19.5 0 Calma 6 Oeste 0 -- -- 58
2019-09-24 20:00:00 21.4 3 Sudoeste 15 Sudoeste 0 -- -- 47
2019-09-24 19:00:00 23.2 10 Sudoeste 23 Sudoeste 0 -- -- 43
2019-09-24 18:00:00 24.3 9 Sudoeste 30 Sudoeste 0 -- -- 39
2019-09-24 17:00:00 23.7 10 Sudoeste 24 Sudoeste 0 -- -- 38
2019-09-24 16:00:00 24.3 9 Sudoeste 23 Sudoeste 0 -- -- 36
2019-09-24 15:00:00 24.7 8 Sudoeste 18 Sudoeste 0 -- -- 35
2019-09-24 14:00:00 23.6 4 Sudoeste 11 Sudoeste 0 -- -- 39
2019-09-24 13:00:00 22.5 5 Sur 15 Sur 0 -- -- 43
2019-09-24 12:00:00 21.4 4 Sur 13 Sudoeste 0 -- -- 47
2019-09-24 11:00:00 19.3 6 Sudoeste 15 Sudoeste 0 -- -- 57
2019-09-24 10:00:00 16.7 0 Calma 9 Sudoeste 0 -- -- 62
2019-09-24 09:00:00 14.8 0 Calma 6 Sudoeste 0 -- -- 68
2019-09-24 08:00:00 13.1 0 Calma 8 Sudoeste 0 -- -- 70
2019-09-24 07:00:00 12.6 3 Sudoeste 6 Sudoeste 0 -- -- 69
2019-09-24 06:00:00 14.7 0 Calma 8 Sudoeste 0 -- -- 60
2019-09-24 05:00:00 14.4 0 Calma 8 Sudoeste 0 -- -- 62
2019-09-24 04:00:00 13.4 0 Calma 4 Sudoeste 0 -- -- 65
2019-09-24 03:00:00 14 0 Calma 7 Sudoeste 0 -- -- 61
2019-09-24 02:00:00 14.3 4 Sur 9 Sudoeste 0 -- -- 58
2019-09-24 01:00:00 15.2 2 Sudoeste 8 Sudoeste 0 -- -- 58
2019-09-24 00:00:00 15.4 3 Sudoeste 10 Sudoeste 0 -- -- 54
2019-09-23 23:00:00 15.7 3 Sudoeste 10 Sudoeste 0 -- -- 53
2019-09-23 22:00:00 16.6 4 Sur 13 Sudoeste 0 -- -- 52
2019-09-23 21:00:00 16.6 5 Sur 10 Sudoeste 0 -- -- 52
2019-09-23 20:00:00 18.6 2 Sudoeste 4 Sudoeste 0 -- -- 48
2019-09-23 19:00:00 20.8 0 Calma 5 Oeste 0 -- -- 36
2019-09-23 18:00:00 22 4 Sudoeste 9 Sudoeste 0 -- -- 33
2019-09-23 17:00:00 21.5 3 Sudoeste 13 Sudoeste 0 -- -- 34
2019-09-23 16:00:00 21.1 3 Sudoeste 12 Sudoeste 0 -- -- 41
2019-09-23 15:00:00 20.5 6 Sudoeste 14 Sudoeste 0 -- -- 44
2019-09-23 14:00:00 19.4 4 Sur 9 Sur 0 -- -- 46
2019-09-23 13:00:00 18.5 6 Sudoeste 15 Sudoeste 0 -- -- 50
2019-09-23 12:00:00 17.5 5 Sur 10 Sudoeste 0 -- -- 57
2019-09-23 11:00:00 15.3 3 Sur 5 Sur 0 -- -- 71
2019-09-23 10:00:00 13.2 3 Sudoeste 4 Sudoeste 0 -- -- 87
2019-09-23 09:00:00 10.5 0 Calma 7 Sudoeste 0 -- -- 89
2019-09-23 08:00:00 9.5 4 Sudoeste 7 Sudoeste 0 -- -- 88
2019-09-23 07:00:00 9.6 2 Sudoeste 4 Sudoeste 0 -- -- 88
2019-09-23 06:00:00 10.1 0 Calma 5 Sudoeste 0 -- -- 86
2019-09-23 05:00:00 10.8 3 Sudoeste 6 Sudoeste 0 -- -- 85
2019-09-23 04:00:00 11.6 2 Oeste 6 Sudoeste 0 -- -- 85
2019-09-23 03:00:00 10.4 0 Calma 5 Sudoeste 0 -- -- 84
2019-09-23 02:00:00 10.7 3 Sur 8 Sur 0 -- -- 82
2019-09-23 01:00:00 12.1 0 Calma 7 Sudoeste 0 -- -- 78
2019-09-23 00:00:00 13.8 0 Calma 8 Sudoeste 0 -- -- 73
2019-09-22 23:00:00 14.4 0 Calma 10 Oeste 0 -- -- 69
2019-09-22 22:00:00 15.6 4 Sudoeste 15 Sur 0 -- -- 60
2019-09-22 21:00:00 16.2 4 Sudoeste 11 Sudoeste 0 -- -- 49
2019-09-22 20:00:00 18.1 8 Sudoeste 17 Sudoeste 0 -- -- 43
2019-09-22 19:00:00 18.8 11 Sur 24 Sudoeste 0 -- -- 43
2019-09-22 18:00:00 20.1 10 Sudoeste 27 Sur 0 -- -- 41
2019-09-22 17:00:00 20.2 13 Sudoeste 26 Sudoeste 0 -- -- 42
2019-09-22 16:00:00 19.9 5 Sudoeste 13 Sur 0 -- -- 51
2019-09-22 15:00:00 19.3 3 Sudoeste 10 Sudoeste 0 -- -- 58
2019-09-22 14:00:00 18.4 4 Sudoeste 13 Sudoeste 0 -- -- 58
2019-09-22 13:00:00 18.3 9 Sudoeste 14 Sudoeste 0 -- -- 67
2019-09-22 12:00:00 18.1 4 Sudoeste 12 Sudoeste 0 -- -- 78
2019-09-22 11:00:00 17.3 3 Sur 10 Sur 0 -- -- 82
2019-09-22 10:00:00 17.3 7 Sudoeste 26 Oeste 1.6 -- -- 84
2019-09-22 09:00:00 17.6 8 Sur 22 Sur 0.8 -- -- 87
2019-09-22 08:00:00 17.6 9 Sur 18 Sur 2.9 -- -- 87
2019-09-22 07:00:00 18.6 9 Sur 19 Sur 0 -- -- 79
2019-09-22 06:00:00 18.9 9 Sur 27 Sur 0 -- -- 77
2019-09-22 05:00:00 18.8 12 Sudoeste 28 Sur 0 -- -- 77
2019-09-22 04:00:00 19.2 10 Sur 23 Sudoeste 0 -- -- 72
2019-09-22 03:00:00 19.5 13 Sur 32 Sur 0 -- -- 68
2019-09-22 02:00:00 19.4 13 Sur 26 Sudoeste 0 -- -- 70
2019-09-22 01:00:00 18.8 9 Sur 22 Sur 0 -- -- 70
2019-09-22 00:00:00 18.8 9 Sur 28 Sudoeste 0 -- -- 68
2019-09-21 23:00:00 18.8 11 Sur 25 Sudoeste 0 -- -- 71
2019-09-21 22:00:00 18.4 6 Sur 19 Sudoeste 0.9 -- -- 80
2019-09-21 21:00:00 20.5 8 Sudoeste 15 Sudoeste 0.9 -- -- 58
2019-09-21 20:00:00 21.7 9 Sur 19 Sur 0 -- -- 48
2019-09-21 19:00:00 22.3 9 Sur 24 Sur 0 -- -- 44
2019-09-21 18:00:00 23.5 12 Sur 28 Sudoeste 0 -- -- 42
2019-09-21 17:00:00 22.7 12 Sur 28 Sudoeste 0 -- -- 45
2019-09-21 16:00:00 22.8 14 Sur 30 Sudoeste 0 -- -- 44
2019-09-21 15:00:00 22.3 15 Sur 30 Sur 0 -- -- 48
2019-09-21 14:00:00 22 16 Sudoeste 29 Sudoeste 0 -- -- 50
2019-09-21 13:00:00 21.5 15 Sudoeste 30 Sudoeste 0 -- -- 55
2019-09-21 12:00:00 20.2 18 Sur 37 Sudoeste 0 -- -- 62
2019-09-21 11:00:00 19.6 12 Sudoeste 30 Oeste 0 -- -- 67
2019-09-21 10:00:00 17.5 8 Sudoeste 31 Sur 0 -- -- 71
2019-09-21 09:00:00 17.1 12 Sudoeste 28 Sudoeste 0 -- -- 77
2019-09-21 08:00:00 17 14 Sur 39 Sur 0 -- -- 77
2019-09-21 07:00:00 17.3 17 Sur 36 Sur 0 -- -- 77
2019-09-21 06:00:00 17.5 21 Sur 42 Sur 0 -- -- 77
2019-09-21 05:00:00 17.1 19 Sudoeste 51 Sudoeste 0.3 -- -- 78
2019-09-21 04:00:00 17.2 21 Sudoeste 40 Sur 1.1 -- -- 75
2019-09-21 03:00:00 16.9 18 Sur 38 Sudoeste 0.6 -- -- 74
2019-09-21 02:00:00 17.5 19 Sudoeste 41 Sudoeste 0 -- -- 68
2019-09-21 01:00:00 17 14 Sudoeste 32 Oeste 2 -- -- 78
2019-09-21 00:00:00 17.6 14 Sudoeste 46 Sur 5 -- -- 85
2019-09-20 23:00:00 18.8 23 Sur 43 Sudoeste 0 -- -- 77
2019-09-20 22:00:00 19 21 Sur 56 Sur 1.2 -- -- 76
2019-09-20 21:00:00 20.8 20 Sur 47 Sudoeste 0 -- -- 58
2019-09-20 20:00:00 22.6 24 Sudoeste 40 Sudoeste 0 -- -- 44
2019-09-20 19:00:00 23.2 15 Sudoeste 32 Sudoeste 0 -- -- 42
2019-09-20 18:00:00 23.9 14 Sudoeste 32 Sudoeste 0 -- -- 39
2019-09-20 17:00:00 24.8 15 Sudoeste 35 Sur 0 -- -- 40
2019-09-20 16:00:00 24.9 17 Sur 34 Sudoeste 0 -- -- 41
2019-09-20 15:00:00 24.6 16 Sudoeste 37 Sudoeste 0 -- -- 41
2019-09-20 14:00:00 23.7 20 Sudoeste 44 Oeste 0 -- -- 43
2019-09-20 13:00:00 23.9 18 Sudoeste 39 Oeste 0 -- -- 44
2019-09-20 12:00:00 23.4 15 Sudoeste 30 Sudoeste 0 -- -- 47
2019-09-20 11:00:00 21.6 6 Sudoeste 17 Sudoeste 0 -- -- 55
2019-09-20 10:00:00 18.2 2 Sudoeste 5 Sudoeste 0 -- -- 70
2019-09-20 09:00:00 17.4 0 Calma 8 Sur 0 -- -- 73
2019-09-20 08:00:00 16.3 0 Calma 5 Sudoeste 0 -- -- 75
2019-09-20 07:00:00 16.3 3 Sudoeste 11 Sudoeste 0 -- -- 78
2019-09-20 06:00:00 15.9 3 Sudoeste 10 Sudoeste 0 -- -- 78
2019-09-20 05:00:00 15.9 3 Sur 10 Sudoeste 0 -- -- 78
2019-09-20 04:00:00 16.7 0 Calma 6 Sudoeste 0 -- -- 73
2019-09-20 03:00:00 18.1 2 Sudoeste 10 Sur 0 -- -- 67
2019-09-20 02:00:00 19.6 5 Sur 18 Sudoeste 0 -- -- 62
2019-09-20 01:00:00 20.8 8 Sur 16 Sudoeste 0 -- -- 59
2019-09-20 00:00:00 20.6 6 Sur 13 Sur 0 -- -- 57
2019-09-19 23:00:00 19.2 7 Sudoeste 10 Sudoeste 0 -- -- 66
2019-09-19 22:00:00 18.7 4 Sur 11 Sudoeste 0 -- -- 63
2019-09-19 21:00:00 19.9 8 Sudoeste 12 Sudoeste 0 -- -- 56
2019-09-19 20:00:00 22.2 3 Sur 7 Sur 0 -- -- 45
2019-09-19 19:00:00 24.9 4 Sudoeste 14 Sudoeste 0 -- -- 37
2019-09-19 18:00:00 25.5 8 Sudoeste 15 Sudoeste 0 -- -- 37
2019-09-19 17:00:00 26.3 4 Sudoeste 20 Oeste 0 -- -- 34
2019-09-19 16:00:00 25.9 8 Sudoeste 18 Sudoeste 0 -- -- 37
2019-09-19 15:00:00 24.6 8 Sudoeste 18 Sur 0 -- -- 38
2019-09-19 14:00:00 23.4 8 Sudoeste 14 Sur 0 -- -- 56
2019-09-19 13:00:00 21.5 7 Sudoeste 14 Sudoeste 0 -- -- 63
2019-09-19 12:00:00 20 6 Sudoeste 10 Sudoeste 0 -- -- 71
2019-09-19 11:00:00 17.2 3 Sudoeste 6 Sudoeste 0 -- -- 87
2019-09-19 10:00:00 15.8 0 Calma 6 Sur 0 -- -- 88
2019-09-19 09:00:00 15.6 3 Sudoeste 7 Sudoeste 0 -- -- 88
2019-09-19 08:00:00 15.8 0 Calma 4 Sudoeste 0 -- -- 88
2019-09-19 07:00:00 15.8 0 Calma 5 Sudoeste 0 -- -- 88
2019-09-19 06:00:00 15.6 0 Calma 4 Sur 0 -- -- 88
2019-09-19 05:00:00 15 0 Calma 6 Sudoeste 0 -- -- 87
2019-09-19 04:00:00 14.9 2 Sudoeste 4 Sudoeste 0 -- -- 87
2019-09-19 03:00:00 16.2 0 Calma 9 Oeste 0 -- -- 87
2019-09-19 02:00:00 16.3 0 Calma 6 Oeste 0 -- -- 86
2019-09-19 01:00:00 16.8 0 Calma 8 Oeste 0 -- -- 85
2019-09-19 00:00:00 16.9 0 Calma 9 Sudoeste 0 -- -- 85
2019-09-18 23:00:00 17 0 Calma 5 Oeste 0 -- -- 82
2019-09-18 22:00:00 17.5 2 Sudoeste 6 Oeste 0 -- -- 79
2019-09-18 21:00:00 18.3 2 Sudoeste 6 Sudoeste 0 -- -- 73
2019-09-18 20:00:00 19.9 2 Sudoeste 7 Sudoeste 0 -- -- 65
2019-09-18 19:00:00 20.3 4 Sudoeste 28 Sur 0.1 -- -- 63
2019-09-18 18:00:00 23.2 12 Sur 26 Sudoeste 0 -- -- 44
2019-09-18 17:00:00 26.2 6 Sudoeste 15 Sur 0 -- -- 37
2019-09-18 16:00:00 25.7 6 Sudoeste 15 Sur 0 -- -- 38
2019-09-18 15:00:00 24.9 5 Sur 16 Sudoeste 0 -- -- 38
2019-09-18 14:00:00 24.2 8 Sur 13 Sur 0 -- -- 40
2019-09-18 13:00:00 23 4 Sudoeste 10 Sudoeste 0 -- -- 45
2019-09-18 12:00:00 21.3 3 Sudoeste 12 Sur 0 -- -- 60
2019-09-18 11:00:00 19.5 6 Sudoeste 13 Sudoeste 0 -- -- 66
2019-09-18 10:00:00 19.2 2 Sudoeste 6 Sudoeste 0 -- -- 77
2019-09-18 09:00:00 17.1 3 Sur 6 Sudoeste 0.6 -- -- 87
2019-09-18 08:00:00 16.4 4 Sudoeste 19 Oeste 1.2 -- -- 87
2019-09-18 07:00:00 16.7 14 Sudoeste 37 Sudoeste 22.5 -- -- 87
2019-09-18 06:00:00 16.5 3 Sur 6 Sur 0 -- -- 84
2019-09-18 05:00:00 16.4 0 Calma 7 Sudoeste 0 -- -- 82
2019-09-18 04:00:00 17.4 2 Sur 6 Sudoeste 0 -- -- 77
2019-09-18 03:00:00 19.5 5 Sudoeste 14 Sudoeste 0 -- -- 73
2019-09-18 02:00:00 20.1 10 Sur 26 Sudoeste 0 -- -- 68
2019-09-18 01:00:00 18.7 4 Sudoeste 8 Sudoeste 0 -- -- 74
2019-09-18 00:00:00 19.3 2 Sudoeste 5 Sudoeste 0 -- -- 71
2019-09-17 23:00:00 20.1 3 Sur 7 Sudoeste 0 -- -- 66
2019-09-17 22:00:00 21.6 0 Calma 5 Sudoeste 0 -- -- 59
2019-09-17 21:00:00 23.5 0 Calma 15 Sudoeste 0 -- -- 51
2019-09-15 18:00:00 19.4 4 Sudoeste 12 Sur 0.2 -- -- 70
2019-09-15 17:00:00 19 5 Sur 42 Sudoeste 0.5 -- -- 63
2019-09-15 16:00:00 21.7 23 Sudoeste 35 Sudoeste 0 -- -- 45
2019-09-15 15:00:00 26.3 10 Sudoeste 23 Sur 0 -- -- 37
2019-09-15 14:00:00 26 7 Sur 15 Sur 0 -- -- 40
2019-09-15 13:00:00 23.8 5 Sur 13 Sur 0 -- -- 46
2019-09-15 12:00:00 21.7 4 Sudoeste 12 Sur 0 -- -- 54
2019-09-15 11:00:00 20.9 4 Sudoeste 8 Sudoeste 0 -- -- 60
2019-09-15 10:00:00 18.9 0 Calma 4 Sur 0 -- -- 69
2019-09-15 09:00:00 15.8 2 Sudoeste 6 Sudoeste 0 -- -- 84
2019-09-15 08:00:00 15.3 0 Calma 7 Sudoeste 0 -- -- 77
2019-09-15 07:00:00 17.1 3 Sudoeste 9 Sur 0.6 -- -- 74
2019-09-15 06:00:00 16.8 2 Sur 6 Sur 0 -- -- 67
2019-09-15 05:00:00 16.6 3 Sudoeste 9 Sudoeste 0 -- -- 68
2019-09-15 04:00:00 17 0 Calma 6 Sudoeste 0 -- -- 58
2019-09-15 03:00:00 18.3 4 Sudoeste 6 Sudoeste 0 -- -- 53
2019-09-15 02:00:00 19.2 4 Sudoeste 11 Sudoeste 0 -- -- 50
2019-09-15 01:00:00 19.3 3 Sudoeste 12 Sudoeste 0 -- -- 48
2019-09-15 00:00:00 18.6 5 Sudoeste 11 Sudoeste 0 -- -- 52